MAPA DE AEROPUERTO

INFORMACIÓN METAR y TAF

METAR FOR EKVG
ADDS - METARS form results

(1544 UTC 07 May 2021)
Data provider http://aviationweather.gov/metar/data/
 
METAR text: EKVG 071520Z AUTO 34012KT 9999 SCT035/// 04/M04 Q1014
Conditions at: EKVG (SORVAAG/VAGAR , DK) observed 1520 UTC 07 May 2021
Temperature: 4.0°C (39°F)
Dewpoint: -4.0°C (25°F) [RH = 56%]
Pressure (altimeter): 29.94 inches Hg (1014.0 mb)
Winds: from the NNW (340 degrees) at 14 MPH (12 knots; 6.2 m/s)
Visibility: 6 or more miles (10+ km)
Ceiling: at least 12,000 feet AGL
Clouds: scattered clouds at 3500 feet AGL
Weather: no significant weather observed at this time

METAR text: EKVG 071450Z AUTO 34011KT 9999 SCT030/// 05/M03 Q1014
Conditions at: EKVG (SORVAAG/VAGAR , DK) observed 1450 UTC 07 May 2021
Temperature: 5.0°C (41°F)
Dewpoint: -3.0°C (27°F) [RH = 56%]
Pressure (altimeter): 29.94 inches Hg (1014.0 mb)
Winds: from the NNW (340 degrees) at 13 MPH (11 knots; 5.7 m/s)
Visibility: 6 or more miles (10+ km)
Ceiling: at least 12,000 feet AGL
Clouds: scattered clouds at 3000 feet AGL
Weather: no significant weather observed at this time

Forecast for: EKVG (SORVAAG/VAGAR , DK)
Text: TAF EKVG 071419Z 0715/0721 36012KT 9999 BKN026
Forecast period: 1500 to 2100 UTC 07 May 2021
Forecast type: FROM: standard forecast or significant change
Winds: from the N (360 degrees) at 14 MPH (12 knots; 6.2 m/s)
Visibility: 6 or more miles (10+ km)
Ceiling: 2600 feet AGL
Clouds: broken clouds at 2600 feet AGL
Weather: no significant weather forecast for this period
Text: PROB40
Forecast period: 1500 to 2100 UTC 07 May 2021
Forecast type: TEMPORARY: The following changes expected for less than half the time period
Visibility: 2.49 miles (4.01 km)
Ceiling: 1200 feet AGL
Clouds: broken clouds at 1200 feet AGL
Weather: SHRA SHSN  (rain showers, snow showers)